sensor_id;sensor_type;location;lat;lon;timestamp;P1;durP1;ratioP1;P2;durP2;ratioP2
25988;SDS011;13778;48.236;9.894;2022-12-05T00:00:11;24.00;;;11.98;;
25988;SDS011;13778;48.236;9.894;2022-12-05T00:03:02;24.48;;;13.38;;
25988;SDS011;13778;48.236;9.894;2022-12-05T00:05:53;22.92;;;12.85;;
25988;SDS011;13778;48.236;9.894;2022-12-05T00:08:44;22.92;;;11.27;;
25988;SDS011;13778;48.236;9.894;2022-12-05T00:11:36;23.37;;;13.30;;
25988;SDS011;13778;48.236;9.894;2022-12-05T00:14:29;24.17;;;12.40;;
25988;SDS011;13778;48.236;9.894;2022-12-05T00:17:21;21.25;;;11.82;;
25988;SDS011;13778;48.236;9.894;2022-12-05T00:23:02;24.95;;;12.43;;
25988;SDS011;13778;48.236;9.894;2022-12-05T00:25:53;20.63;;;11.45;;
25988;SDS011;13778;48.236;9.894;2022-12-05T00:28:43;21.98;;;12.43;;
25988;SDS011;13778;48.236;9.894;2022-12-05T00:31:33;22.85;;;12.77;;
25988;SDS011;13778;48.236;9.894;2022-12-05T00:34:25;22.08;;;12.23;;
25988;SDS011;13778;48.236;9.894;2022-12-05T00:40:06;19.25;;;11.10;;
25988;SDS011;13778;48.236;9.894;2022-12-05T00:42:57;22.83;;;11.75;;
25988;SDS011;13778;48.236;9.894;2022-12-05T00:45:47;24.67;;;12.25;;
25988;SDS011;13778;48.236;9.894;2022-12-05T00:48:38;21.73;;;12.23;;
25988;SDS011;13778;48.236;9.894;2022-12-05T00:51:31;23.33;;;12.00;;
25988;SDS011;13778;48.236;9.894;2022-12-05T00:54:22;23.08;;;11.65;;
25988;SDS011;13778;48.236;9.894;2022-12-05T00:57:12;21.88;;;12.27;;
25988;SDS011;13778;48.236;9.894;2022-12-05T01:00:03;21.45;;;11.85;;
25988;SDS011;13778;48.236;9.894;2022-12-05T01:02:54;21.75;;;11.15;;
25988;SDS011;13778;48.236;9.894;2022-12-05T01:05:44;19.38;;;10.93;;
25988;SDS011;13778;48.236;9.894;2022-12-05T01:08:36;20.42;;;10.88;;
25988;SDS011;13778;48.236;9.894;2022-12-05T01:11:27;20.73;;;11.55;;
25988;SDS011;13778;48.236;9.894;2022-12-05T01:14:19;18.73;;;10.93;;
25988;SDS011;13778;48.236;9.894;2022-12-05T01:19:59;23.25;;;11.38;;
25988;SDS011;13778;48.236;9.894;2022-12-05T01:22:50;24.60;;;12.18;;
25988;SDS011;13778;48.236;9.894;2022-12-05T01:25:43;21.40;;;11.30;;
25988;SDS011;13778;48.236;9.894;2022-12-05T01:28:34;22.80;;;11.40;;
25988;SDS011;13778;48.236;9.894;2022-12-05T01:31:25;24.30;;;12.45;;
25988;SDS011;13778;48.236;9.894;2022-12-05T01:34:16;21.83;;;11.82;;
25988;SDS011;13778;48.236;9.894;2022-12-05T01:37:07;22.90;;;11.98;;
25988;SDS011;13778;48.236;9.894;2022-12-05T01:39:57;23.75;;;12.55;;
25988;SDS011;13778;48.236;9.894;2022-12-05T01:42:49;23.42;;;11.85;;
25988;SDS011;13778;48.236;9.894;2022-12-05T01:45:41;23.40;;;12.20;;
25988;SDS011;13778;48.236;9.894;2022-12-05T01:48:32;25.58;;;12.23;;
25988;SDS011;13778;48.236;9.894;2022-12-05T01:51:24;22.67;;;11.63;;
25988;SDS011;13778;48.236;9.894;2022-12-05T01:54:16;23.00;;;11.10;;
25988;SDS011;13778;48.236;9.894;2022-12-05T01:57:08;24.33;;;12.65;;
25988;SDS011;13778;48.236;9.894;2022-12-05T02:00:03;27.58;;;13.40;;
25988;SDS011;13778;48.236;9.894;2022-12-05T02:02:54;27.38;;;13.75;;
25988;SDS011;13778;48.236;9.894;2022-12-05T02:05:46;26.20;;;12.35;;
25988;SDS011;13778;48.236;9.894;2022-12-05T02:08:37;29.63;;;13.70;;
25988;SDS011;13778;48.236;9.894;2022-12-05T02:11:28;29.60;;;14.52;;
25988;SDS011;13778;48.236;9.894;2022-12-05T02:14:22;32.72;;;14.32;;
25988;SDS011;13778;48.236;9.894;2022-12-05T02:17:18;29.20;;;13.02;;
25988;SDS011;13778;48.236;9.894;2022-12-05T02:20:14;30.85;;;14.25;;
25988;SDS011;13778;48.236;9.894;2022-12-05T02:23:13;31.10;;;14.20;;
25988;SDS011;13778;48.236;9.894;2022-12-05T02:26:13;33.65;;;14.60;;
25988;SDS011;13778;48.236;9.894;2022-12-05T02:29:21;27.08;;;14.40;;
25988;SDS011;13778;48.236;9.894;2022-12-05T02:32:16;31.42;;;15.05;;
25988;SDS011;13778;48.236;9.894;2022-12-05T02:35:12;32.80;;;16.33;;
25988;SDS011;13778;48.236;9.894;2022-12-05T02:38:06;34.08;;;15.90;;
25988;SDS011;13778;48.236;9.894;2022-12-05T02:41:02;32.45;;;15.48;;
25988;SDS011;13778;48.236;9.894;2022-12-05T02:43:56;30.70;;;15.73;;
25988;SDS011;13778;48.236;9.894;2022-12-05T02:46:49;30.83;;;15.50;;
25988;SDS011;13778;48.236;9.894;2022-12-05T02:49:42;35.75;;;16.17;;
25988;SDS011;13778;48.236;9.894;2022-12-05T02:56:00;32.60;;;16.40;;
25988;SDS011;13778;48.236;9.894;2022-12-05T02:58:51;31.67;;;16.60;;
25988;SDS011;13778;48.236;9.894;2022-12-05T03:01:43;35.63;;;17.65;;
25988;SDS011;13778;48.236;9.894;2022-12-05T03:07:26;38.80;;;17.77;;
25988;SDS011;13778;48.236;9.894;2022-12-05T03:10:18;38.03;;;17.58;;
25988;SDS011;13778;48.236;9.894;2022-12-05T03:13:11;33.55;;;16.63;;
25988;SDS011;13778;48.236;9.894;2022-12-05T03:16:04;32.17;;;15.63;;
25988;SDS011;13778;48.236;9.894;2022-12-05T03:18:57;32.67;;;16.30;;
25988;SDS011;13778;48.236;9.894;2022-12-05T03:21:50;35.70;;;17.05;;
25988;SDS011;13778;48.236;9.894;2022-12-05T03:24:44;28.33;;;15.57;;
25988;SDS011;13778;48.236;9.894;2022-12-05T03:27:37;34.35;;;17.65;;
25988;SDS011;13778;48.236;9.894;2022-12-05T03:30:30;36.13;;;16.27;;
25988;SDS011;13778;48.236;9.894;2022-12-05T03:33:24;34.33;;;17.15;;
25988;SDS011;13778;48.236;9.894;2022-12-05T03:36:16;32.67;;;15.90;;
25988;SDS011;13778;48.236;9.894;2022-12-05T03:39:09;32.47;;;15.77;;
25988;SDS011;13778;48.236;9.894;2022-12-05T03:42:07;33.20;;;17.13;;
25988;SDS011;13778;48.236;9.894;2022-12-05T03:44:59;33.97;;;16.27;;
25988;SDS011;13778;48.236;9.894;2022-12-05T03:47:51;28.10;;;16.92;;
25988;SDS011;13778;48.236;9.894;2022-12-05T03:50:44;35.15;;;18.73;;
25988;SDS011;13778;48.236;9.894;2022-12-05T03:53:36;32.95;;;16.83;;
25988;SDS011;13778;48.236;9.894;2022-12-05T03:56:30;31.20;;;15.88;;
25988;SDS011;13778;48.236;9.894;2022-12-05T03:59:27;30.30;;;16.02;;
25988;SDS011;13778;48.236;9.894;2022-12-05T04:02:20;31.00;;;16.63;;
25988;SDS011;13778;48.236;9.894;2022-12-05T04:05:13;33.65;;;16.52;;
25988;SDS011;13778;48.236;9.894;2022-12-05T04:08:06;30.63;;;16.65;;
25988;SDS011;13778;48.236;9.894;2022-12-05T04:10:58;31.75;;;16.48;;
25988;SDS011;13778;48.236;9.894;2022-12-05T04:13:50;31.73;;;16.88;;
25988;SDS011;13778;48.236;9.894;2022-12-05T04:16:44;25.38;;;14.48;;
25988;SDS011;13778;48.236;9.894;2022-12-05T04:19:53;30.33;;;16.25;;
25988;SDS011;13778;48.236;9.894;2022-12-05T04:23:03;33.45;;;16.63;;
25988;SDS011;13778;48.236;9.894;2022-12-05T04:25:55;29.35;;;15.82;;
25988;SDS011;13778;48.236;9.894;2022-12-05T04:28:47;29.65;;;15.00;;
25988;SDS011;13778;48.236;9.894;2022-12-05T04:31:40;30.02;;;15.05;;
25988;SDS011;13778;48.236;9.894;2022-12-05T04:34:32;35.35;;;15.93;;
25988;SDS011;13778;48.236;9.894;2022-12-05T04:37:24;31.38;;;15.50;;
25988;SDS011;13778;48.236;9.894;2022-12-05T04:40:17;31.73;;;15.93;;
25988;SDS011;13778;48.236;9.894;2022-12-05T04:43:08;28.20;;;15.95;;
25988;SDS011;13778;48.236;9.894;2022-12-05T04:46:01;30.33;;;15.68;;
25988;SDS011;13778;48.236;9.894;2022-12-05T04:48:54;33.17;;;17.15;;
25988;SDS011;13778;48.236;9.894;2022-12-05T04:51:46;35.22;;;16.38;;
25988;SDS011;13778;48.236;9.894;2022-12-05T04:54:38;33.70;;;16.85;;
25988;SDS011;13778;48.236;9.894;2022-12-05T04:57:30;32.38;;;15.63;;
25988;SDS011;13778;48.236;9.894;2022-12-05T05:00:23;36.95;;;16.73;;
25988;SDS011;13778;48.236;9.894;2022-12-05T05:03:15;34.25;;;16.55;;
25988;SDS011;13778;48.236;9.894;2022-12-05T05:06:09;30.30;;;16.90;;
25988;SDS011;13778;48.236;9.894;2022-12-05T05:09:00;31.67;;;18.90;;
25988;SDS011;13778;48.236;9.894;2022-12-05T05:14:41;33.72;;;18.15;;
25988;SDS011;13778;48.236;9.894;2022-12-05T05:17:32;33.92;;;21.45;;
25988;SDS011;13778;48.236;9.894;2022-12-05T05:20:22;35.03;;;20.42;;
25988;SDS011;13778;48.236;9.894;2022-12-05T05:23:12;48.25;;;35.45;;
25988;SDS011;13778;48.236;9.894;2022-12-05T05:26:04;33.78;;;19.00;;
25988;SDS011;13778;48.236;9.894;2022-12-05T05:28:56;61.30;;;29.70;;
25988;SDS011;13778;48.236;9.894;2022-12-05T05:31:46;33.83;;;19.95;;
25988;SDS011;13778;48.236;9.894;2022-12-05T05:34:37;38.33;;;21.02;;
25988;SDS011;13778;48.236;9.894;2022-12-05T05:37:28;34.38;;;17.40;;
25988;SDS011;13778;48.236;9.894;2022-12-05T05:40:18;35.28;;;18.40;;
25988;SDS011;13778;48.236;9.894;2022-12-05T05:43:10;32.75;;;17.48;;
25988;SDS011;13778;48.236;9.894;2022-12-05T05:48:51;33.90;;;16.30;;
25988;SDS011;13778;48.236;9.894;2022-12-05T05:51:41;32.63;;;17.17;;
25988;SDS011;13778;48.236;9.894;2022-12-05T05:54:32;35.50;;;16.65;;
25988;SDS011;13778;48.236;9.894;2022-12-05T05:57:22;32.42;;;16.52;;
25988;SDS011;13778;48.236;9.894;2022-12-05T06:00:14;33.67;;;17.55;;
25988;SDS011;13778;48.236;9.894;2022-12-05T06:03:05;34.03;;;17.40;;
25988;SDS011;13778;48.236;9.894;2022-12-05T06:05:56;33.60;;;16.65;;
25988;SDS011;13778;48.236;9.894;2022-12-05T06:08:47;32.87;;;17.40;;
25988;SDS011;13778;48.236;9.894;2022-12-05T06:11:37;30.10;;;16.65;;
25988;SDS011;13778;48.236;9.894;2022-12-05T06:14:27;33.20;;;17.33;;
25988;SDS011;13778;48.236;9.894;2022-12-05T06:17:19;37.05;;;18.42;;
25988;SDS011;13778;48.236;9.894;2022-12-05T06:20:10;30.85;;;17.38;;
25988;SDS011;13778;48.236;9.894;2022-12-05T06:23:00;32.45;;;16.60;;
25988;SDS011;13778;48.236;9.894;2022-12-05T06:25:52;30.23;;;16.73;;
25988;SDS011;13778;48.236;9.894;2022-12-05T06:28:43;32.17;;;16.95;;
25988;SDS011;13778;48.236;9.894;2022-12-05T06:31:33;30.20;;;16.73;;
25988;SDS011;13778;48.236;9.894;2022-12-05T06:34:25;32.15;;;17.05;;
25988;SDS011;13778;48.236;9.894;2022-12-05T06:40:06;29.55;;;16.35;;
25988;SDS011;13778;48.236;9.894;2022-12-05T06:42:57;29.35;;;16.85;;
25988;SDS011;13778;48.236;9.894;2022-12-05T06:45:48;34.22;;;16.85;;
25988;SDS011;13778;48.236;9.894;2022-12-05T06:48:38;31.00;;;16.65;;
25988;SDS011;13778;48.236;9.894;2022-12-05T06:51:30;33.15;;;15.88;;
25988;SDS011;13778;48.236;9.894;2022-12-05T06:54:20;33.20;;;17.23;;
25988;SDS011;13778;48.236;9.894;2022-12-05T06:57:11;31.48;;;18.27;;
25988;SDS011;13778;48.236;9.894;2022-12-05T07:00:02;30.98;;;16.98;;
25988;SDS011;13778;48.236;9.894;2022-12-05T07:03:09;33.95;;;17.95;;
25988;SDS011;13778;48.236;9.894;2022-12-05T07:05:59;30.33;;;16.52;;
25988;SDS011;13778;48.236;9.894;2022-12-05T07:08:51;30.30;;;16.70;;
25988;SDS011;13778;48.236;9.894;2022-12-05T07:11:41;30.08;;;17.80;;
25988;SDS011;13778;48.236;9.894;2022-12-05T07:14:32;32.08;;;17.13;;
25988;SDS011;13778;48.236;9.894;2022-12-05T07:17:22;32.22;;;17.17;;
25988;SDS011;13778;48.236;9.894;2022-12-05T07:20:13;33.72;;;17.65;;
25988;SDS011;13778;48.236;9.894;2022-12-05T07:23:05;28.27;;;15.80;;
25988;SDS011;13778;48.236;9.894;2022-12-05T07:25:57;31.70;;;16.45;;
25988;SDS011;13778;48.236;9.894;2022-12-05T07:31:38;31.52;;;17.40;;
25988;SDS011;13778;48.236;9.894;2022-12-05T07:34:29;31.15;;;16.13;;
25988;SDS011;13778;48.236;9.894;2022-12-05T07:37:19;28.52;;;18.60;;
25988;SDS011;13778;48.236;9.894;2022-12-05T07:40:10;28.40;;;17.20;;
25988;SDS011;13778;48.236;9.894;2022-12-05T07:43:02;28.17;;;17.27;;
25988;SDS011;13778;48.236;9.894;2022-12-05T07:45:52;31.17;;;16.58;;
25988;SDS011;13778;48.236;9.894;2022-12-05T07:48:43;31.50;;;16.73;;
25988;SDS011;13778;48.236;9.894;2022-12-05T07:51:34;28.95;;;15.70;;
25988;SDS011;13778;48.236;9.894;2022-12-05T07:54:25;32.72;;;17.92;;
25988;SDS011;13778;48.236;9.894;2022-12-05T07:57:15;34.38;;;17.15;;
25988;SDS011;13778;48.236;9.894;2022-12-05T08:00:08;31.10;;;17.42;;
25988;SDS011;13778;48.236;9.894;2022-12-05T08:03:00;33.00;;;18.15;;
25988;SDS011;13778;48.236;9.894;2022-12-05T08:05:50;25.48;;;16.30;;
25988;SDS011;13778;48.236;9.894;2022-12-05T08:08:41;25.77;;;16.77;;
25988;SDS011;13778;48.236;9.894;2022-12-05T08:14:24;26.88;;;16.08;;
25988;SDS011;13778;48.236;9.894;2022-12-05T08:17:16;29.02;;;16.48;;
25988;SDS011;13778;48.236;9.894;2022-12-05T08:22:56;26.48;;;15.25;;
25988;SDS011;13778;48.236;9.894;2022-12-05T08:25:47;31.25;;;19.35;;
25988;SDS011;13778;48.236;9.894;2022-12-05T08:28:37;27.60;;;17.85;;
25988;SDS011;13778;48.236;9.894;2022-12-05T08:31:29;27.38;;;17.45;;
25988;SDS011;13778;48.236;9.894;2022-12-05T08:34:21;31.38;;;17.48;;
25988;SDS011;13778;48.236;9.894;2022-12-05T08:37:12;24.35;;;14.60;;
25988;SDS011;13778;48.236;9.894;2022-12-05T08:40:03;26.67;;;16.38;;
25988;SDS011;13778;48.236;9.894;2022-12-05T08:42:53;27.83;;;17.73;;
25988;SDS011;13778;48.236;9.894;2022-12-05T08:45:47;29.15;;;16.42;;
25988;SDS011;13778;48.236;9.894;2022-12-05T08:48:38;24.48;;;15.70;;
25988;SDS011;13778;48.236;9.894;2022-12-05T08:51:30;25.52;;;15.00;;
25988;SDS011;13778;48.236;9.894;2022-12-05T08:57:11;20.13;;;12.63;;
25988;SDS011;13778;48.236;9.894;2022-12-05T09:00:01;22.70;;;14.45;;
25988;SDS011;13778;48.236;9.894;2022-12-05T09:02:53;21.70;;;13.27;;
25988;SDS011;13778;48.236;9.894;2022-12-05T09:05:44;20.63;;;12.98;;
25988;SDS011;13778;48.236;9.894;2022-12-05T09:08:36;21.67;;;12.75;;
25988;SDS011;13778;48.236;9.894;2022-12-05T09:11:27;18.23;;;11.73;;
25988;SDS011;13778;48.236;9.894;2022-12-05T09:14:18;17.65;;;11.63;;
25988;SDS011;13778;48.236;9.894;2022-12-05T09:17:08;18.17;;;11.50;;
25988;SDS011;13778;48.236;9.894;2022-12-05T09:19:59;16.15;;;10.23;;
25988;SDS011;13778;48.236;9.894;2022-12-05T09:22:50;19.23;;;10.23;;
25988;SDS011;13778;48.236;9.894;2022-12-05T09:25:42;22.17;;;11.43;;
25988;SDS011;13778;48.236;9.894;2022-12-05T09:31:23;16.58;;;9.63;;
25988;SDS011;13778;48.236;9.894;2022-12-05T09:37:06;12.98;;;8.98;;
25988;SDS011;13778;48.236;9.894;2022-12-05T09:39:56;16.33;;;8.82;;
25988;SDS011;13778;48.236;9.894;2022-12-05T09:42:53;11.82;;;7.97;;
25988;SDS011;13778;48.236;9.894;2022-12-05T09:45:48;11.93;;;8.27;;
25988;SDS011;13778;48.236;9.894;2022-12-05T09:48:40;14.60;;;7.40;;
25988;SDS011;13778;48.236;9.894;2022-12-05T09:51:33;13.30;;;7.00;;
25988;SDS011;13778;48.236;9.894;2022-12-05T09:54:24;12.02;;;7.03;;
25988;SDS011;13778;48.236;9.894;2022-12-05T09:57:15;11.82;;;7.85;;
25988;SDS011;13778;48.236;9.894;2022-12-05T10:00:08;11.90;;;7.20;;
25988;SDS011;13778;48.236;9.894;2022-12-05T10:03:01;10.25;;;6.30;;
25988;SDS011;13778;48.236;9.894;2022-12-05T10:05:57;12.52;;;6.85;;
25988;SDS011;13778;48.236;9.894;2022-12-05T10:09:00;8.93;;;5.97;;
25988;SDS011;13778;48.236;9.894;2022-12-05T10:11:56;10.18;;;5.82;;
25988;SDS011;13778;48.236;9.894;2022-12-05T10:14:50;9.23;;;6.05;;
25988;SDS011;13778;48.236;9.894;2022-12-05T10:17:46;7.30;;;5.25;;
25988;SDS011;13778;48.236;9.894;2022-12-05T10:20:40;10.13;;;5.03;;
25988;SDS011;13778;48.236;9.894;2022-12-05T10:23:34;6.10;;;4.40;;
25988;SDS011;13778;48.236;9.894;2022-12-05T10:26:28;8.10;;;4.55;;
25988;SDS011;13778;48.236;9.894;2022-12-05T10:29:21;5.90;;;4.47;;
25988;SDS011;13778;48.236;9.894;2022-12-05T10:32:14;6.75;;;4.50;;
25988;SDS011;13778;48.236;9.894;2022-12-05T10:35:14;5.57;;;3.83;;
25988;SDS011;13778;48.236;9.894;2022-12-05T10:38:06;6.10;;;4.80;;
25988;SDS011;13778;48.236;9.894;2022-12-05T10:40:56;6.20;;;4.30;;
25988;SDS011;13778;48.236;9.894;2022-12-05T10:43:48;17.48;;;9.75;;
25988;SDS011;13778;48.236;9.894;2022-12-05T10:46:38;12.05;;;6.43;;
25988;SDS011;13778;48.236;9.894;2022-12-05T10:49:29;7.20;;;4.57;;
25988;SDS011;13778;48.236;9.894;2022-12-05T10:52:21;6.47;;;5.07;;
25988;SDS011;13778;48.236;9.894;2022-12-05T10:55:13;4.20;;;3.10;;
25988;SDS011;13778;48.236;9.894;2022-12-05T10:58:09;8.25;;;5.28;;
25988;SDS011;13778;48.236;9.894;2022-12-05T11:01:05;43.55;;;11.05;;
25988;SDS011;13778;48.236;9.894;2022-12-05T11:03:57;7.22;;;3.38;;
25988;SDS011;13778;48.236;9.894;2022-12-05T11:06:49;6.15;;;4.20;;
25988;SDS011;13778;48.236;9.894;2022-12-05T11:09:41;4.40;;;3.17;;
25988;SDS011;13778;48.236;9.894;2022-12-05T11:12:37;4.88;;;3.20;;
25988;SDS011;13778;48.236;9.894;2022-12-05T11:15:28;7.03;;;3.75;;
25988;SDS011;13778;48.236;9.894;2022-12-05T11:18:24;4.40;;;3.23;;
25988;SDS011;13778;48.236;9.894;2022-12-05T11:21:15;3.90;;;3.38;;
25988;SDS011;13778;48.236;9.894;2022-12-05T11:24:17;4.28;;;3.47;;
25988;SDS011;13778;48.236;9.894;2022-12-05T11:27:20;3.03;;;2.60;;
25988;SDS011;13778;48.236;9.894;2022-12-05T11:30:17;4.55;;;3.22;;
25988;SDS011;13778;48.236;9.894;2022-12-05T11:33:14;5.55;;;3.00;;
25988;SDS011;13778;48.236;9.894;2022-12-05T11:36:10;4.63;;;3.15;;
25988;SDS011;13778;48.236;9.894;2022-12-05T11:39:01;6.43;;;3.28;;
25988;SDS011;13778;48.236;9.894;2022-12-05T11:41:56;4.90;;;3.90;;
25988;SDS011;13778;48.236;9.894;2022-12-05T11:44:54;5.93;;;4.07;;
25988;SDS011;13778;48.236;9.894;2022-12-05T11:47:49;7.68;;;4.78;;
25988;SDS011;13778;48.236;9.894;2022-12-05T11:50:58;8.80;;;5.50;;
25988;SDS011;13778;48.236;9.894;2022-12-05T11:54:10;9.75;;;5.78;;
25988;SDS011;13778;48.236;9.894;2022-12-05T11:57:04;8.10;;;5.68;;
25988;SDS011;13778;48.236;9.894;2022-12-05T12:00:04;11.75;;;6.60;;
25988;SDS011;13778;48.236;9.894;2022-12-05T12:06:11;11.35;;;6.05;;
25988;SDS011;13778;48.236;9.894;2022-12-05T12:09:12;8.10;;;4.95;;
25988;SDS011;13778;48.236;9.894;2022-12-05T12:12:08;9.82;;;6.40;;
25988;SDS011;13778;48.236;9.894;2022-12-05T12:15:06;10.85;;;5.85;;
25988;SDS011;13778;48.236;9.894;2022-12-05T12:17:59;6.63;;;5.40;;
25988;SDS011;13778;48.236;9.894;2022-12-05T12:20:55;7.63;;;5.25;;
25988;SDS011;13778;48.236;9.894;2022-12-05T12:23:54;6.65;;;5.05;;
25988;SDS011;13778;48.236;9.894;2022-12-05T12:26:49;9.25;;;4.85;;
25988;SDS011;13778;48.236;9.894;2022-12-05T12:29:45;9.73;;;5.20;;
25988;SDS011;13778;48.236;9.894;2022-12-05T12:32:42;4.65;;;4.13;;
25988;SDS011;13778;48.236;9.894;2022-12-05T12:35:37;5.40;;;4.05;;
25988;SDS011;13778;48.236;9.894;2022-12-05T12:38:39;5.30;;;3.88;;
25988;SDS011;13778;48.236;9.894;2022-12-05T12:41:39;7.82;;;4.60;;
25988;SDS011;13778;48.236;9.894;2022-12-05T12:48:00;4.45;;;3.63;;
25988;SDS011;13778;48.236;9.894;2022-12-05T12:50:51;6.35;;;3.97;;
25988;SDS011;13778;48.236;9.894;2022-12-05T12:54:00;4.90;;;3.17;;
25988;SDS011;13778;48.236;9.894;2022-12-05T12:56:56;3.95;;;3.50;;
25988;SDS011;13778;48.236;9.894;2022-12-05T12:59:53;3.50;;;3.08;;
25988;SDS011;13778;48.236;9.894;2022-12-05T13:02:48;4.38;;;3.92;;
25988;SDS011;13778;48.236;9.894;2022-12-05T13:05:43;5.43;;;3.85;;
25988;SDS011;13778;48.236;9.894;2022-12-05T13:08:34;5.05;;;3.85;;
25988;SDS011;13778;48.236;9.894;2022-12-05T13:11:28;7.95;;;7.13;;
25988;SDS011;13778;48.236;9.894;2022-12-05T13:14:23;4.03;;;3.28;;
25988;SDS011;13778;48.236;9.894;2022-12-05T13:17:16;4.38;;;3.97;;
25988;SDS011;13778;48.236;9.894;2022-12-05T13:20:11;7.32;;;4.38;;
25988;SDS011;13778;48.236;9.894;2022-12-05T13:23:04;6.80;;;6.15;;
25988;SDS011;13778;48.236;9.894;2022-12-05T13:25:57;4.05;;;3.53;;
25988;SDS011;13778;48.236;9.894;2022-12-05T13:28:49;6.60;;;5.80;;
25988;SDS011;13778;48.236;9.894;2022-12-05T13:31:41;9.27;;;8.52;;
25988;SDS011;13778;48.236;9.894;2022-12-05T13:34:41;28.65;;;16.45;;
25988;SDS011;13778;48.236;9.894;2022-12-05T13:37:34;5.03;;;3.92;;
25988;SDS011;13778;48.236;9.894;2022-12-05T13:40:49;4.32;;;3.33;;
25988;SDS011;13778;48.236;9.894;2022-12-05T13:43:57;2.97;;;2.60;;
25988;SDS011;13778;48.236;9.894;2022-12-05T13:46:49;4.28;;;2.60;;
25988;SDS011;13778;48.236;9.894;2022-12-05T13:49:41;2.85;;;2.35;;
25988;SDS011;13778;48.236;9.894;2022-12-05T13:52:38;4.05;;;2.63;;
25988;SDS011;13778;48.236;9.894;2022-12-05T13:55:31;3.45;;;2.35;;
25988;SDS011;13778;48.236;9.894;2022-12-05T13:58:36;2.60;;;2.40;;
25988;SDS011;13778;48.236;9.894;2022-12-05T14:01:41;3.17;;;2.75;;
25988;SDS011;13778;48.236;9.894;2022-12-05T14:04:43;2.45;;;2.25;;
25988;SDS011;13778;48.236;9.894;2022-12-05T14:07:42;2.90;;;2.60;;
25988;SDS011;13778;48.236;9.894;2022-12-05T14:13:40;2.60;;;2.40;;
25988;SDS011;13778;48.236;9.894;2022-12-05T14:19:36;5.70;;;2.20;;
25988;SDS011;13778;48.236;9.894;2022-12-05T14:28:51;2.08;;;1.88;;
25988;SDS011;13778;48.236;9.894;2022-12-05T14:31:46;2.13;;;1.90;;
25988;SDS011;13778;48.236;9.894;2022-12-05T14:34:46;2.58;;;2.20;;
25988;SDS011;13778;48.236;9.894;2022-12-05T14:37:39;3.30;;;3.00;;
25988;SDS011;13778;48.236;9.894;2022-12-05T14:43:20;3.95;;;2.63;;
25988;SDS011;13778;48.236;9.894;2022-12-05T14:46:18;4.28;;;2.90;;
25988;SDS011;13778;48.236;9.894;2022-12-05T14:49:32;4.63;;;2.40;;
25988;SDS011;13778;48.236;9.894;2022-12-05T14:52:23;4.70;;;2.40;;
25988;SDS011;13778;48.236;9.894;2022-12-05T14:55:14;4.75;;;2.58;;
25988;SDS011;13778;48.236;9.894;2022-12-05T14:58:08;7.43;;;2.83;;
25988;SDS011;13778;48.236;9.894;2022-12-05T15:01:02;4.40;;;2.80;;
25988;SDS011;13778;48.236;9.894;2022-12-05T15:04:02;4.00;;;2.90;;
25988;SDS011;13778;48.236;9.894;2022-12-05T15:06:54;5.85;;;2.72;;
25988;SDS011;13778;48.236;9.894;2022-12-05T15:09:53;8.30;;;4.07;;
25988;SDS011;13778;48.236;9.894;2022-12-05T15:12:46;5.05;;;2.78;;
25988;SDS011;13778;48.236;9.894;2022-12-05T15:15:39;5.45;;;2.78;;
25988;SDS011;13778;48.236;9.894;2022-12-05T15:18:33;5.20;;;3.80;;
25988;SDS011;13778;48.236;9.894;2022-12-05T15:21:25;6.05;;;3.80;;
25988;SDS011;13778;48.236;9.894;2022-12-05T15:24:18;5.40;;;4.20;;
25988;SDS011;13778;48.236;9.894;2022-12-05T15:27:09;5.07;;;3.53;;
25988;SDS011;13778;48.236;9.894;2022-12-05T15:32:50;3.00;;;2.80;;
25988;SDS011;13778;48.236;9.894;2022-12-05T15:35:41;3.42;;;2.63;;
25988;SDS011;13778;48.236;9.894;2022-12-05T15:38:36;3.80;;;2.65;;
25988;SDS011;13778;48.236;9.894;2022-12-05T15:41:27;7.82;;;2.80;;
25988;SDS011;13778;48.236;9.894;2022-12-05T15:44:18;3.13;;;2.83;;
25988;SDS011;13778;48.236;9.894;2022-12-05T15:47:14;3.30;;;2.58;;
25988;SDS011;13778;48.236;9.894;2022-12-05T15:50:11;2.92;;;2.60;;
25988;SDS011;13778;48.236;9.894;2022-12-05T15:53:02;3.88;;;2.80;;
25988;SDS011;13778;48.236;9.894;2022-12-05T15:55:54;2.92;;;2.55;;
25988;SDS011;13778;48.236;9.894;2022-12-05T15:58:47;10.13;;;8.15;;
25988;SDS011;13778;48.236;9.894;2022-12-05T16:01:40;11.80;;;7.18;;
25988;SDS011;13778;48.236;9.894;2022-12-05T16:04:33;6.22;;;4.40;;
25988;SDS011;13778;48.236;9.894;2022-12-05T16:07:26;5.50;;;4.13;;
25988;SDS011;13778;48.236;9.894;2022-12-05T16:10:19;7.03;;;3.85;;
25988;SDS011;13778;48.236;9.894;2022-12-05T16:13:12;5.25;;;3.67;;
25988;SDS011;13778;48.236;9.894;2022-12-05T16:16:03;4.72;;;3.35;;
25988;SDS011;13778;48.236;9.894;2022-12-05T16:18:55;4.55;;;4.03;;
25988;SDS011;13778;48.236;9.894;2022-12-05T16:21:46;8.63;;;5.28;;
25988;SDS011;13778;48.236;9.894;2022-12-05T16:24:53;6.47;;;4.53;;
25988;SDS011;13778;48.236;9.894;2022-12-05T16:27:53;4.93;;;4.15;;
25988;SDS011;13778;48.236;9.894;2022-12-05T16:30:53;6.45;;;3.67;;
25988;SDS011;13778;48.236;9.894;2022-12-05T16:33:44;7.30;;;4.38;;
25988;SDS011;13778;48.236;9.894;2022-12-05T16:36:34;7.85;;;4.57;;
25988;SDS011;13778;48.236;9.894;2022-12-05T16:39:25;7.18;;;5.18;;
25988;SDS011;13778;48.236;9.894;2022-12-05T16:42:22;6.43;;;4.38;;
25988;SDS011;13778;48.236;9.894;2022-12-05T16:45:13;5.25;;;4.32;;
25988;SDS011;13778;48.236;9.894;2022-12-05T16:48:16;8.23;;;5.68;;
25988;SDS011;13778;48.236;9.894;2022-12-05T16:51:15;7.22;;;5.45;;
25988;SDS011;13778;48.236;9.894;2022-12-05T16:54:06;7.72;;;5.80;;
25988;SDS011;13778;48.236;9.894;2022-12-05T16:56:57;7.97;;;5.70;;
25988;SDS011;13778;48.236;9.894;2022-12-05T16:59:48;9.45;;;5.13;;
25988;SDS011;13778;48.236;9.894;2022-12-05T17:02:38;9.75;;;5.85;;
25988;SDS011;13778;48.236;9.894;2022-12-05T17:05:30;14.82;;;7.80;;
25988;SDS011;13778;48.236;9.894;2022-12-05T17:11:11;10.07;;;7.20;;
25988;SDS011;13778;48.236;9.894;2022-12-05T17:14:03;9.05;;;6.50;;
25988;SDS011;13778;48.236;9.894;2022-12-05T17:16:54;11.32;;;6.75;;
25988;SDS011;13778;48.236;9.894;2022-12-05T17:19:44;9.90;;;7.63;;
25988;SDS011;13778;48.236;9.894;2022-12-05T17:22:36;8.23;;;5.22;;
25988;SDS011;13778;48.236;9.894;2022-12-05T17:25:27;12.55;;;5.60;;
25988;SDS011;13778;48.236;9.894;2022-12-05T17:28:19;9.75;;;6.25;;
25988;SDS011;13778;48.236;9.894;2022-12-05T17:31:10;8.23;;;5.65;;
25988;SDS011;13778;48.236;9.894;2022-12-05T17:34:01;12.60;;;7.00;;
25988;SDS011;13778;48.236;9.894;2022-12-05T17:36:52;9.48;;;5.65;;
25988;SDS011;13778;48.236;9.894;2022-12-05T17:39:44;9.95;;;6.10;;
25988;SDS011;13778;48.236;9.894;2022-12-05T17:45:25;12.68;;;6.72;;
25988;SDS011;13778;48.236;9.894;2022-12-05T17:48:15;11.55;;;6.75;;
25988;SDS011;13778;48.236;9.894;2022-12-05T17:51:06;16.45;;;7.90;;
25988;SDS011;13778;48.236;9.894;2022-12-05T17:53:59;11.27;;;7.15;;
25988;SDS011;13778;48.236;9.894;2022-12-05T17:56:50;14.50;;;7.20;;
25988;SDS011;13778;48.236;9.894;2022-12-05T17:59:41;12.73;;;6.60;;
25988;SDS011;13778;48.236;9.894;2022-12-05T18:02:31;8.00;;;5.88;;
25988;SDS011;13778;48.236;9.894;2022-12-05T18:05:22;10.43;;;5.72;;
25988;SDS011;13778;48.236;9.894;2022-12-05T18:08:13;10.52;;;6.53;;
25988;SDS011;13778;48.236;9.894;2022-12-05T18:11:04;11.40;;;7.07;;
25988;SDS011;13778;48.236;9.894;2022-12-05T18:13:56;9.73;;;6.13;;
25988;SDS011;13778;48.236;9.894;2022-12-05T18:16:48;13.13;;;7.15;;